Time;durP1;ratioP1;P1;durP2;ratioP2;P2;SDS_P1;SDS_P2;PMS_P1;PMS_P2;Temp;Humidity;BMP_temperature;BMP_pressure;BME280_temperature;BME280_humidity;BME280_pressure;Samples;Min_cycle;Max_cycle;Signal;HPM_P1;HPM_P2
2022/11/22 00:00:14;;;;;;;18.80;11.97;;;;;;;0.05;97.31;99008.00;5037752;28;20258;-84
2022/11/22 00:02:40;;;;;;;19.63;11.77;;;;;;;0.03;97.31;99003.75;5039536;28;20221;-84
2022/11/22 00:05:07;;;;;;;18.90;11.83;;;;;;;0.03;97.77;98990.66;5038785;28;20579;-85
2022/11/22 00:07:34;;;;;;;20.17;11.10;;;;;;;0.00;97.36;98989.88;5037719;28;20206;-84
2022/11/22 00:10:02;;;;;;;22.87;12.53;;;;;;;-0.02;97.46;98993.53;5041595;28;20636;-80
2022/11/22 00:12:33;;;;;;;22.57;12.67;;;;;;;-0.04;97.44;98996.22;5044094;28;20280;-84
2022/11/22 00:14:59;;;;;;;24.53;13.27;;;;;;;-0.03;97.59;98994.44;5041696;28;20614;-84
2022/11/22 00:17:26;;;;;;;25.67;12.37;;;;;;;-0.04;97.57;98996.22;5044716;28;20206;-84
2022/11/22 00:19:52;;;;;;;27.40;13.10;;;;;;;-0.04;97.76;98987.50;5042435;28;20232;-84
2022/11/22 00:22:19;;;;;;;26.50;13.20;;;;;;;-0.03;97.69;98990.06;5042707;28;20219;-84
2022/11/22 00:24:46;;;;;;;27.00;13.27;;;;;;;-0.02;97.53;98991.75;5044343;28;20213;-84
2022/11/22 00:27:12;;;;;;;26.97;13.03;;;;;;;0.00;98.29;98989.88;5034190;28;20229;-84
2022/11/22 00:29:40;;;;;;;31.03;14.33;;;;;;;0.04;98.78;98987.13;5036083;28;20832;-84
2022/11/22 00:32:06;;;;;;;26.00;12.03;;;;;;;0.07;98.69;98979.13;5042352;28;20210;-85
2022/11/22 00:34:33;;;;;;;30.03;13.87;;;;;;;0.10;98.68;98979.00;5038853;28;20206;-84
2022/11/22 00:36:59;;;;;;;30.93;14.30;;;;;;;0.11;98.93;98975.47;5047608;28;20208;-84
2022/11/22 00:39:26;;;;;;;30.23;14.40;;;;;;;0.13;98.82;98978.84;5036395;28;20229;-85
2022/11/22 00:41:52;;;;;;;28.70;14.13;;;;;;;0.13;99.08;98973.63;5037267;28;20201;-84
2022/11/22 00:44:19;;;;;;;29.17;14.37;;;;;;;0.14;99.06;98965.69;5040074;28;20207;-85
2022/11/22 00:46:46;;;;;;;29.53;14.33;;;;;;;0.16;99.25;98973.47;5032257;28;20209;-84
2022/11/22 00:49:13;;;;;;;31.93;15.13;;;;;;;0.19;99.23;98966.31;5032056;28;20717;-85
2022/11/22 00:51:40;;;;;;;29.73;14.03;;;;;;;0.22;99.39;98967.94;5041146;28;20218;-85
2022/11/22 00:54:06;;;;;;;30.93;13.40;;;;;;;0.23;99.66;98969.63;5037044;28;20209;-84
2022/11/22 00:56:34;;;;;;;34.13;15.00;;;;;;;0.24;99.36;98946.00;5039431;28;20210;-84
2022/11/22 00:59:01;;;;;;;33.03;15.87;;;;;;;0.26;99.70;98953.78;5041779;28;20241;-84
2022/11/22 01:01:27;;;;;;;33.60;14.13;;;;;;;0.29;99.67;98943.16;5037994;28;20295;-84
2022/11/22 01:03:55;;;;;;;32.97;14.57;;;;;;;0.28;99.74;98942.31;5044422;28;20233;-85
2022/11/22 01:06:22;;;;;;;32.73;14.77;;;;;;;0.30;99.97;98947.47;5041330;28;20579;-84
2022/11/22 01:08:49;;;;;;;28.67;14.37;;;;;;;0.34;100.00;98949.03;5045944;28;20236;-85
2022/11/22 01:11:17;;;;;;;31.13;14.50;;;;;;;0.35;99.90;98948.09;5039483;28;20217;-85
2022/11/22 01:13:44;;;;;;;34.27;15.83;;;;;;;0.34;99.97;98934.16;5044670;28;20574;-84
2022/11/22 01:16:11;;;;;;;36.00;15.27;;;;;;;0.33;99.90;98932.47;5038952;28;20807;-85
2022/11/22 01:18:38;;;;;;;40.77;16.17;;;;;;;0.33;99.88;98949.94;5032526;28;20211;-84
2022/11/22 01:21:06;;;;;;;40.77;16.20;;;;;;;0.33;100.00;98944.72;5042972;28;20209;-84
2022/11/22 01:23:32;;;;;;;43.03;16.80;;;;;;;0.32;100.00;98938.63;5040532;28;20226;-84
2022/11/22 01:25:59;;;;;;;45.63;17.70;;;;;;;0.31;100.00;98936.94;5037076;28;20211;-84
2022/11/22 01:28:26;;;;;;;45.17;18.13;;;;;;;0.28;100.00;98929.22;5047343;28;20213;-84
2022/11/22 01:30:53;;;;;;;41.67;18.07;;;;;;;0.28;100.00;98923.97;5033642;28;20244;-84
2022/11/22 01:33:20;;;;;;;40.10;17.63;;;;;;;0.31;100.00;98928.22;5041739;28;20218;-85
2022/11/22 01:35:47;;;;;;;45.03;18.47;;;;;;;0.31;100.00;98923.84;5043754;28;20198;-85
2022/11/22 01:38:15;;;;;;;41.10;18.63;;;;;;;0.31;100.00;98938.69;5038443;28;20619;-85
2022/11/22 01:40:42;;;;;;;45.30;17.80;;;;;;;0.32;100.00;98935.16;5045744;28;20229;-84
2022/11/22 01:43:15;;;;;;;46.23;17.80;;;;;;;0.31;100.00;98918.59;5032837;28;20230;-85
2022/11/22 01:45:49;;;;;;;46.50;17.83;;;;;;;0.31;100.00;98921.22;5042673;28;20210;-85
2022/11/22 01:48:23;;;;;;;42.90;17.47;;;;;;;0.30;100.00;98913.44;5032992;28;20210;-85
2022/11/22 01:50:53;;;;;;;43.37;18.03;;;;;;;0.32;100.00;98908.97;5036104;28;20222;-85
2022/11/22 01:53:27;;;;;;;47.03;18.90;;;;;;;0.30;100.00;98900.34;5034222;28;20205;-85
2022/11/22 01:55:56;;;;;;;43.27;18.27;;;;;;;0.29;100.00;98901.25;5029547;28;20289;-85
2022/11/22 01:58:24;;;;;;;47.33;18.20;;;;;;;0.29;100.00;98893.41;5029756;28;20209;-85
2022/11/22 02:00:53;;;;;;;47.33;19.33;;;;;;;0.28;100.00;98884.72;5022657;28;20234;-85
2022/11/22 02:03:22;;;;;;;41.67;17.83;;;;;;;0.28;100.00;98892.56;5027477;28;20218;-85
2022/11/22 02:05:50;;;;;;;48.70;20.27;;;;;;;0.30;100.00;98897.72;5018618;28;20215;-85
2022/11/22 02:08:25;;;;;;;49.63;20.17;;;;;;;0.29;100.00;98894.25;5030811;28;20214;-84
2022/11/22 02:10:54;;;;;;;51.67;19.97;;;;;;;0.30;100.00;98901.19;5026303;28;20233;-85
2022/11/22 02:13:23;;;;;;;52.60;21.90;;;;;;;0.31;100.00;98904.66;5041560;28;20202;-85
2022/11/22 02:15:51;;;;;;;50.27;19.27;;;;;;;0.31;100.00;98904.66;5021933;28;20203;-84
2022/11/22 02:18:17;;;;;;;44.10;18.77;;;;;;;0.30;100.00;98888.09;5032473;28;20210;-85
2022/11/22 02:20:45;;;;;;;40.27;16.80;;;;;;;0.31;100.00;98887.19;5031861;28;20225;-84
2022/11/22 02:23:19;;;;;;;48.07;19.90;;;;;;;0.30;100.00;98876.78;5036527;28;20226;-84
2022/11/22 02:25:55;;;;;;;48.93;19.57;;;;;;;0.31;100.00;98889.81;5039796;28;20201;-84
2022/11/22 02:28:21;;;;;;;47.43;20.10;;;;;;;0.31;100.00;98886.34;5036291;28;20205;-84
2022/11/22 02:30:48;;;;;;;44.17;18.90;;;;;;;0.31;100.00;98884.56;5028505;28;20225;-85
2022/11/22 02:33:14;;;;;;;43.43;20.43;;;;;;;0.29;100.00;98881.16;5030760;28;20209;-85
2022/11/22 02:35:41;;;;;;;43.63;19.17;;;;;;;0.31;100.00;98873.25;5040676;28;20202;-84
2022/11/22 02:38:10;;;;;;;42.70;20.10;;;;;;;0.31;100.00;98873.25;5040365;28;20205;-85
2022/11/22 02:40:42;;;;;;;43.03;18.77;;;;;;;0.31;100.00;98884.56;5035809;28;20585;-84
2022/11/22 02:43:13;;;;;;;48.50;20.00;;;;;;;0.32;100.00;98877.56;5031100;28;20244;-85
2022/11/22 02:45:40;;;;;;;49.47;20.30;;;;;;;0.33;100.00;98880.09;5039188;28;20202;-85
2022/11/22 02:48:07;;;;;;;42.97;18.80;;;;;;;0.34;100.00;98873.09;5033464;28;20229;-84
2022/11/22 02:50:34;;;;;;;46.57;20.07;;;;;;;0.37;100.00;98875.53;5027519;28;20226;-84
2022/11/22 02:53:01;;;;;;;39.63;17.80;;;;;;;0.37;100.00;98857.19;5040113;28;20216;-85
2022/11/22 02:55:28;;;;;;;43.70;18.97;;;;;;;0.37;100.00;98870.28;5033205;28;20229;-84
2022/11/22 02:57:55;;;;;;;38.47;17.67;;;;;;;0.33;100.00;98853.91;5044533;28;20229;-85
2022/11/22 03:00:22;;;;;;;46.90;19.93;;;;;;;0.34;100.00;98855.63;5036901;28;20237;-85
2022/11/22 03:02:49;;;;;;;42.53;19.17;;;;;;;0.34;100.00;98863.47;5030744;28;20597;-85
2022/11/22 03:05:16;;;;;;;40.53;18.80;;;;;;;0.36;100.00;98862.53;5032527;28;20195;-85
2022/11/22 03:07:43;;;;;;;45.23;20.73;;;;;;;0.38;100.00;98877.22;5036789;28;20205;-84
2022/11/22 03:10:10;;;;;;;42.80;19.77;;;;;;;0.38;100.00;98869.38;5038199;28;21157;-84
2022/11/22 03:12:37;;;;;;;43.30;18.73;;;;;;;0.41;100.00;98879.69;5038690;28;20787;-85
2022/11/22 03:15:04;;;;;;;46.27;18.97;;;;;;;0.43;100.00;98880.47;5033718;28;20215;-84
2022/11/22 03:17:32;;;;;;;38.13;18.40;;;;;;;0.46;100.00;98867.22;5038554;28;20577;-85
2022/11/22 03:19:58;;;;;;;36.37;16.87;;;;;;;0.49;100.00;98855.75;5039393;28;20230;-84
2022/11/22 03:22:25;;;;;;;39.37;17.10;;;;;;;0.50;100.00;98853.06;5032557;28;20206;-84
2022/11/22 03:24:51;;;;;;;35.30;17.57;;;;;;;0.53;100.00;98847.66;5039021;28;20602;-84
2022/11/22 03:27:18;;;;;;;37.90;18.43;;;;;;;0.56;100.00;98849.25;5039215;28;20593;-86
2022/11/22 03:29:44;;;;;;;42.43;18.67;;;;;;;0.56;100.00;98860.59;5032064;28;20231;-85
2022/11/22 03:32:11;;;;;;;37.43;17.93;;;;;;;0.57;100.00;98854.41;5029780;28;20217;-84
2022/11/22 03:34:39;;;;;;;37.93;17.83;;;;;;;0.58;100.00;98837.78;5039454;28;20206;-84
2022/11/22 03:37:05;;;;;;;35.93;17.73;;;;;;;0.59;100.00;98851.72;5037088;28;20652;-84
2022/11/22 03:39:32;;;;;;;37.93;17.07;;;;;;;0.60;100.00;98846.41;5047464;28;20562;-85
2022/11/22 03:41:58;;;;;;;38.37;16.17;;;;;;;0.63;100.00;98848.03;5035707;28;20206;-84
2022/11/22 03:44:25;;;;;;;37.90;18.00;;;;;;;0.63;100.00;98837.56;5038786;28;20253;-84
2022/11/22 03:46:51;;;;;;;38.43;17.93;;;;;;;0.62;100.00;98844.56;5038172;28;20225;-84
2022/11/22 03:49:18;;;;;;;40.77;18.17;;;;;;;0.63;100.00;98840.16;5044578;28;20225;-83
2022/11/22 03:51:46;;;;;;;36.47;17.03;;;;;;;0.64;100.00;98845.34;5041561;28;20569;-84
2022/11/22 03:54:12;;;;;;;39.57;17.47;;;;;;;0.63;100.00;98843.63;5041867;28;20208;-84
2022/11/22 03:56:39;;;;;;;35.80;17.60;;;;;;;0.65;100.00;98849.66;5040395;28;20206;-84
2022/11/22 03:59:05;;;;;;;36.83;17.03;;;;;;;0.65;100.00;98846.19;5044824;28;20695;-83
2022/11/22 04:01:32;;;;;;;40.07;18.30;;;;;;;0.67;100.00;98842.56;5026989;28;20565;-84
2022/11/22 04:03:58;;;;;;;41.07;17.60;;;;;;;0.68;100.00;98841.63;5027877;28;20218;-83
2022/11/22 04:06:25;;;;;;;44.00;18.93;;;;;;;0.68;100.00;98835.53;5033567;28;20205;-83
2022/11/22 04:08:53;;;;;;;38.17;17.50;;;;;;;0.68;100.00;98836.41;5037162;28;20214;-84
2022/11/22 04:11:19;;;;;;;36.80;18.33;;;;;;;0.71;100.00;98839.78;5037553;28;20214;-83
2022/11/22 04:16:29;;;;;;;39.53;18.43;;;;;;;0.74;100.00;98847.47;5039442;28;20309;-83
2022/11/22 04:18:56;;;;;;;39.87;17.60;;;;;;;0.74;100.00;98835.22;5039038;28;20656;-83
2022/11/22 04:21:33;;;;;;;43.17;18.57;;;;;;;0.76;100.00;98848.22;5037759;28;20225;-83
2022/11/22 04:26:47;;;;;;;37.43;17.57;;;;;;;0.79;100.00;98841.06;5043065;28;20208;-83
2022/11/22 04:29:14;;;;;;;38.37;18.23;;;;;;;0.80;100.00;98839.28;5030082;28;20584;-83
2022/11/22 04:34:24;;;;;;;35.93;18.47;;;;;;;0.82;100.00;98847.91;5023986;28;20213;-83
2022/11/22 04:36:51;;;;;;;35.50;17.43;;;;;;;0.83;100.00;98860.09;5039023;28;20610;-83
2022/11/22 04:39:19;;;;;;;37.97;18.17;;;;;;;0.84;100.00;98857.41;5041382;28;20233;-83
2022/11/22 04:41:45;;;;;;;37.30;17.80;;;;;;;0.87;100.00;98869.50;5046688;28;20216;-83
2022/11/22 04:46:55;;;;;;;36.37;18.00;;;;;;;0.90;100.00;98869.31;5038165;28;20229;-83
2022/11/22 04:49:22;;;;;;;36.27;17.17;;;;;;;0.92;100.00;98875.31;5039295;28;20233;-83
2022/11/22 04:54:34;;;;;;;37.20;17.67;;;;;;;0.96;100.00;98876.88;5045069;28;20224;-84
2022/11/22 04:57:00;;;;;;;35.93;17.37;;;;;;;0.97;100.00;98873.31;5022423;28;20225;-83
2022/11/22 04:59:27;;;;;;;34.80;17.30;;;;;;;1.00;100.00;98875.78;5038052;28;20226;-84
2022/11/22 05:01:53;;;;;;;38.07;17.90;;;;;;;1.00;100.00;98878.41;5044641;28;20194;-83
2022/11/22 05:04:19;;;;;;;39.57;18.13;;;;;;;1.03;100.00;98878.25;5034384;28;20563;-83
2022/11/22 05:06:46;;;;;;;35.70;17.17;;;;;;;1.04;100.00;98869.47;5023553;28;20254;-83
2022/11/22 05:09:12;;;;;;;34.20;16.17;;;;;;;1.07;100.00;98876.31;5025262;28;20249;-83
2022/11/22 05:11:40;;;;;;;35.27;15.60;;;;;;;1.07;100.00;98877.16;5032655;28;20198;-83
2022/11/22 05:14:07;;;;;;;34.27;16.53;;;;;;;1.08;100.00;98870.97;5032496;28;20233;-83
2022/11/22 05:16:33;;;;;;;32.17;16.47;;;;;;;1.09;100.00;98880.53;5032404;28;20229;-83
2022/11/22 05:18:59;;;;;;;30.27;16.30;;;;;;;1.10;100.00;98869.13;5032525;28;20214;-84
2022/11/22 05:21:27;;;;;;;32.03;17.23;;;;;;;1.11;100.00;98880.44;5032451;28;20209;-83
2022/11/22 05:23:53;;;;;;;35.73;17.00;;;;;;;1.13;100.00;98883.84;5032292;28;20710;-83
2022/11/22 05:26:21;;;;;;;34.03;16.73;;;;;;;1.13;100.00;98879.44;5032969;28;20206;-84
2022/11/22 05:28:49;;;;;;;31.27;16.93;;;;;;;1.13;100.00;98882.06;5032867;28;20588;-83
2022/11/22 05:31:21;;;;;;;34.93;16.50;;;;;;;1.16;100.00;98886.31;5032775;28;20280;-84
2022/11/22 05:33:49;;;;;;;35.23;16.77;;;;;;;1.16;100.00;98887.16;5034454;28;20873;-83
2022/11/22 05:36:16;;;;;;;34.23;16.83;;;;;;;1.17;100.00;98875.72;5033921;28;20210;-84
2022/11/22 05:38:43;;;;;;;33.00;16.70;;;;;;;1.18;100.00;98885.28;5034074;28;20208;-84
2022/11/22 05:41:11;;;;;;;31.53;15.57;;;;;;;1.19;100.00;98881.75;5033915;28;20217;-84
2022/11/22 05:43:39;;;;;;;35.00;16.80;;;;;;;1.21;100.00;98889.53;5033257;28;20229;-83
2022/11/22 05:46:08;;;;;;;26.87;15.57;;;;;;;1.21;100.00;98876.44;5033326;28;20965;-83
2022/11/22 05:48:35;;;;;;;35.87;18.70;;;;;;;1.20;100.00;98880.81;5033357;28;20590;-84
2022/11/22 05:51:04;;;;;;;26.83;15.07;;;;;;;1.22;100.00;98880.75;5033222;28;20684;-83
2022/11/22 05:53:30;;;;;;;36.20;16.70;;;;;;;1.23;100.00;98879.81;5029047;28;20206;-85
2022/11/22 05:55:57;;;;;;;34.03;15.90;;;;;;;1.23;100.00;98885.06;5016255;28;20207;-84
2022/11/22 05:58:23;;;;;;;39.37;17.77;;;;;;;1.25;100.00;98884.06;5014686;28;20206;-84
2022/11/22 06:00:50;;;;;;;34.10;16.23;;;;;;;1.25;100.00;98886.69;5013988;28;20235;-84
2022/11/22 06:03:18;;;;;;;34.13;16.13;;;;;;;1.26;100.00;98880.47;5014624;28;20689;-84
2022/11/22 06:05:51;;;;;;;31.63;16.73;;;;;;;1.27;100.00;98891.81;5014358;28;20603;-84
2022/11/22 06:08:17;;;;;;;32.13;16.00;;;;;;;1.27;100.00;98887.41;5028414;28;20207;-83
2022/11/22 06:10:44;;;;;;;29.60;16.60;;;;;;;1.28;100.00;98881.25;5040258;28;20629;-85
2022/11/22 06:13:10;;;;;;;30.73;15.57;;;;;;;1.29;100.00;98882.09;5032902;28;20565;-85
2022/11/22 06:15:36;;;;;;;27.47;15.30;;;;;;;1.32;100.00;98879.31;5033383;28;20214;-85
2022/11/22 06:18:03;;;;;;;29.53;15.97;;;;;;;1.32;100.00;98879.31;5034119;28;20218;-83
2022/11/22 06:20:31;;;;;;;33.30;14.40;;;;;;;1.34;100.00;98882.69;5034575;28;20233;-82
2022/11/22 06:22:58;;;;;;;26.00;13.63;;;;;;;1.37;100.00;98893.03;5033490;28;20217;-83
2022/11/22 06:25:25;;;;;;;30.07;14.33;;;;;;;1.38;100.00;98895.56;5033880;28;20222;-83
2022/11/22 06:27:52;;;;;;;26.37;13.47;;;;;;;1.42;100.00;98898.03;5033865;28;20312;-82
2022/11/22 06:30:18;;;;;;;26.73;14.00;;;;;;;1.44;100.00;98901.38;5033074;28;20230;-82
2022/11/22 06:32:47;;;;;;;28.23;14.67;;;;;;;1.47;100.00;98901.22;5043979;28;20202;-83
2022/11/22 06:35:13;;;;;;;29.50;14.33;;;;;;;1.49;100.00;98894.13;5043157;28;20213;-83
2022/11/22 06:37:41;;;;;;;26.37;13.53;;;;;;;1.50;100.00;98893.19;5043719;28;20679;-83
2022/11/22 06:40:11;;;;;;;25.13;12.67;;;;;;;1.52;100.00;98905.31;5053517;28;20226;-82
2022/11/22 06:42:38;;;;;;;23.57;13.00;;;;;;;1.54;100.00;98906.06;5046244;28;20225;-82
2022/11/22 06:45:05;;;;;;;21.27;12.37;;;;;;;1.57;100.00;98905.91;5033476;28;20575;-83
2022/11/22 06:47:32;;;;;;;20.47;11.30;;;;;;;1.61;100.00;98909.22;5033684;28;20210;-83
2022/11/22 06:49:58;;;;;;;20.57;11.20;;;;;;;1.65;100.00;98913.34;5034495;28;20226;-82
2022/11/22 06:52:25;;;;;;;17.63;10.07;;;;;;;1.71;100.00;98918.28;5033851;28;20206;-82
2022/11/22 06:54:53;;;;;;;17.93;10.43;;;;;;;1.78;100.00;98918.78;5034087;28;20252;-83
2022/11/22 06:57:21;;;;;;;17.30;9.97;;;;;;;1.84;100.00;98915.81;5034705;28;20679;-83
2022/11/22 06:59:47;;;;;;;18.20;11.10;;;;;;;1.91;100.00;98910.16;5034301;28;20218;-83
2022/11/22 07:02:14;;;;;;;14.87;10.07;;;;;;;1.98;100.00;98914.09;5034185;28;20201;-83
2022/11/22 07:04:40;;;;;;;14.33;9.90;;;;;;;2.05;100.00;98923.34;5034041;28;20237;-83
2022/11/22 07:07:06;;;;;;;11.63;8.83;;;;;;;2.11;100.00;98919.53;5034493;28;20209;-83
2022/11/22 07:09:34;;;;;;;16.87;9.87;;;;;;;2.18;100.00;98925.28;5037472;28;20238;-82
2022/11/22 07:12:02;;;;;;;12.53;9.27;;;;;;;2.24;100.00;98911.81;5037357;28;20241;-83
2022/11/22 07:14:29;;;;;;;14.20;9.20;;;;;;;2.30;100.00;98914.94;5037208;28;20206;-84
2022/11/22 07:16:56;;;;;;;14.23;9.10;;;;;;;2.35;100.00;98931.25;5037228;28;20557;-83
2022/11/22 07:19:22;;;;;;;15.97;10.03;;;;;;;2.42;100.00;98937.03;5037529;28;20233;-83
2022/11/22 07:21:49;;;;;;;11.37;8.23;;;;;;;2.50;100.00;98939.22;5037367;28;20218;-82
2022/11/22 07:24:16;;;;;;;11.07;8.60;;;;;;;2.54;100.00;98938.94;5037001;28;20229;-83
2022/11/22 07:26:43;;;;;;;10.70;7.80;;;;;;;2.58;100.00;98942.22;5035974;28;20640;-83
2022/11/22 07:29:11;;;;;;;12.90;8.07;;;;;;;2.62;100.00;98949.84;5036106;28;20727;-84
2022/11/22 07:31:37;;;;;;;15.43;8.77;;;;;;;2.67;100.00;98946.97;5036350;28;20210;-82
2022/11/22 07:34:04;;;;;;;11.50;8.43;;;;;;;2.70;100.00;98944.97;5036485;28;20213;-83
2022/11/22 07:36:31;;;;;;;11.57;7.60;;;;;;;2.74;100.00;98953.53;5036692;28;20657;-83
2022/11/22 07:38:57;;;;;;;10.30;7.83;;;;;;;2.78;100.00;98939.28;5036168;28;20285;-83
2022/11/22 07:41:24;;;;;;;13.37;7.93;;;;;;;2.81;100.00;98943.53;5043632;28;20222;-83
2022/11/22 07:43:51;;;;;;;11.03;6.77;;;;;;;2.85;100.00;98938.00;5054506;28;20194;-83
2022/11/22 07:46:22;;;;;;;14.03;7.80;;;;;;;2.87;100.00;98933.47;5055927;28;20771;-83
2022/11/22 07:48:49;;;;;;;12.17;7.97;;;;;;;2.90;100.00;98937.72;5043513;28;20630;-84
2022/11/22 07:51:16;;;;;;;12.10;7.90;;;;;;;2.93;100.00;98943.63;5037038;28;20206;-84
2022/11/22 07:53:43;;;;;;;12.57;8.00;;;;;;;2.95;100.00;98943.56;5045667;28;20243;-83
2022/11/22 07:56:09;;;;;;;13.07;7.20;;;;;;;2.97;100.00;98946.94;5044004;28;20202;-83
2022/11/22 07:58:36;;;;;;;9.37;7.40;;;;;;;2.98;100.00;98946.00;5044662;28;20206;-84
2022/11/22 08:01:07;;;;;;;10.43;8.17;;;;;;;3.00;100.00;98949.41;5055622;28;20600;-84
2022/11/22 08:03:36;;;;;;;11.40;9.10;;;;;;;3.01;100.00;98951.94;5055567;28;20206;-83
2022/11/22 08:06:04;;;;;;;12.47;8.33;;;;;;;3.05;100.00;98950.78;5043594;28;20606;-83
2022/11/22 08:08:31;;;;;;;9.43;7.20;;;;;;;3.07;100.00;98958.59;5044216;28;20213;-83
2022/11/22 08:10:57;;;;;;;10.90;8.13;;;;;;;3.13;100.00;98968.75;5052892;28;20236;-83
2022/11/22 08:13:25;;;;;;;11.30;7.73;;;;;;;3.17;100.00;98969.44;5049797;28;20209;-83
2022/11/22 08:15:51;;;;;;;12.43;7.13;;;;;;;3.20;100.00;98962.19;5053367;28;20217;-83
2022/11/22 08:18:18;;;;;;;11.30;7.40;;;;;;;3.24;100.00;98968.09;5044926;28;20657;-84
2022/11/22 08:20:46;;;;;;;9.90;7.23;;;;;;;3.27;100.00;98971.41;5034994;28;20230;-83
2022/11/22 08:23:12;;;;;;;9.97;7.23;;;;;;;3.31;100.00;98977.34;5039786;28;20212;-83
2022/11/22 08:25:39;;;;;;;9.73;7.20;;;;;;;3.35;100.00;98986.75;5043952;28;20218;-83
2022/11/22 08:28:05;;;;;;;10.60;7.57;;;;;;;3.40;100.00;98989.94;5044481;28;20218;-83
2022/11/22 08:30:32;;;;;;;11.97;7.60;;;;;;;3.44;100.00;98994.06;5046640;28;20696;-84
2022/11/22 08:32:58;;;;;;;8.70;6.63;;;;;;;3.46;100.00;98992.19;5049549;28;20217;-83
2022/11/22 08:35:25;;;;;;;8.20;6.43;;;;;;;3.48;100.00;98991.16;5047696;28;20210;-83
2022/11/22 08:37:56;;;;;;;8.17;7.07;;;;;;;3.53;100.00;99000.56;5045077;28;20220;-83
2022/11/22 08:40:22;;;;;;;9.77;7.10;;;;;;;3.56;100.00;98989.88;5048778;28;20218;-84
2022/11/22 08:42:49;;;;;;;8.23;7.03;;;;;;;3.59;100.00;98997.53;5043550;28;20206;-83
2022/11/22 08:45:15;;;;;;;16.70;8.27;;;;;;;3.62;100.00;98994.72;5042704;28;20226;-83
2022/11/22 08:47:42;;;;;;;11.60;7.23;;;;;;;3.64;100.00;98993.69;5044396;28;20671;-83
2022/11/22 08:50:09;;;;;;;12.40;7.43;;;;;;;3.68;100.00;99003.09;5041710;28;20718;-83
2022/11/22 08:52:36;;;;;;;9.63;7.13;;;;;;;3.71;99.76;99000.28;5040135;28;20202;-83
2022/11/22 08:55:04;;;;;;;9.73;7.47;;;;;;;3.74;99.46;99001.91;5040334;28;20210;-83
2022/11/22 08:57:31;;;;;;;11.07;7.13;;;;;;;3.76;99.97;99014.00;5047972;28;20213;-84
2022/11/22 08:59:57;;;;;;;9.60;7.17;;;;;;;3.79;99.45;99007.69;5036881;28;20233;-83
2022/11/22 09:02:24;;;;;;;9.67;7.30;;;;;;;3.82;98.79;99010.16;5040610;28;20214;-83
2022/11/22 09:04:50;;;;;;;10.60;6.97;;;;;;;3.86;99.15;99003.75;5035039;28;20234;-83
2022/11/22 09:07:17;;;;;;;10.80;6.53;;;;;;;3.88;99.20;99012.41;5037348;28;20715;-83
2022/11/22 09:09:43;;;;;;;12.97;7.47;;;;;;;3.93;99.14;99014.78;5036476;28;20605;-83
2022/11/22 09:12:11;;;;;;;9.73;7.13;;;;;;;3.96;98.76;99017.19;5036901;28;20599;-85
2022/11/22 09:14:37;;;;;;;9.60;7.37;;;;;;;3.99;98.19;99012.56;5045731;28;20205;-85
2022/11/22 09:17:04;;;;;;;9.03;6.20;;;;;;;4.03;98.00;99018.50;5047550;28;20216;-85
2022/11/22 09:19:31;;;;;;;9.40;6.60;;;;;;;4.06;97.76;99018.31;5029751;28;20254;-85
2022/11/22 09:21:57;;;;;;;9.07;6.70;;;;;;;4.08;97.81;99035.72;5043112;28;20205;-83
2022/11/22 09:24:24;;;;;;;8.53;6.63;;;;;;;4.10;97.85;99025.09;5043537;28;20226;-84
2022/11/22 09:26:50;;;;;;;10.33;6.10;;;;;;;4.14;98.08;99032.69;5045651;28;20206;-84
2022/11/22 09:29:18;;;;;;;9.00;7.07;;;;;;;4.17;98.04;99036.94;5039002;28;20727;-84
2022/11/22 09:31:45;;;;;;;11.77;6.87;;;;;;;4.21;97.54;99045.50;5042071;28;20208;-84
2022/11/22 09:34:11;;;;;;;11.93;6.67;;;;;;;4.23;97.67;99047.09;5039320;28;20210;-84
2022/11/22 09:36:38;;;;;;;8.47;6.60;;;;;;;4.27;97.49;99058.28;5041218;28;20217;-84
2022/11/22 09:39:04;;;;;;;9.30;6.57;;;;;;;4.30;97.20;99056.28;5045491;28;20210;-84
2022/11/22 09:42:06;;;;;;;8.77;6.53;;;;;;;4.33;97.72;99056.09;5043445;28;20201;-84
2022/11/22 09:44:45;;;;;;;10.03;6.77;;;;;;;4.38;97.64;99054.03;5035580;28;20229;-84
2022/11/22 09:47:25;;;;;;;11.13;7.27;;;;;;;4.42;96.87;99047.63;5042633;28;20220;-84
2022/11/22 09:50:02;;;;;;;10.40;6.13;;;;;;;4.47;97.05;99057.88;5042635;28;20236;-84
2022/11/22 09:52:34;;;;;;;13.27;6.47;;;;;;;4.53;97.08;99052.19;5032156;28;20220;-84
2022/11/22 09:55:04;;;;;;;6.47;5.37;;;;;;;4.59;97.41;99061.50;5026807;28;20216;-84
2022/11/22 09:57:35;;;;;;;9.37;5.77;;;;;;;4.65;97.40;99061.97;5029080;28;20206;-83
2022/11/22 10:00:07;;;;;;;10.07;6.00;;;;;;;4.73;97.18;99062.31;5033138;28;20229;-85
2022/11/22 10:02:37;;;;;;;7.67;5.97;;;;;;;4.78;97.14;99068.16;5036823;28;20650;-85
2022/11/22 10:05:12;;;;;;;7.13;5.60;;;;;;;4.85;97.18;99071.22;5032860;28;20236;-84
2022/11/22 10:07:44;;;;;;;8.27;6.23;;;;;;;4.95;97.01;99071.47;5037819;28;20236;-84
2022/11/22 10:10:16;;;;;;;7.20;5.37;;;;;;;5.01;96.88;99056.09;5030826;28;20237;-84
2022/11/22 10:12:48;;;;;;;7.27;5.60;;;;;;;5.07;97.09;99062.75;5037315;28;20199;-84
2022/11/22 10:15:28;;;;;;;8.67;5.33;;;;;;;5.11;96.75;99054.53;5038013;28;20213;-85
2022/11/22 10:17:57;;;;;;;8.10;5.73;;;;;;;5.17;96.59;99059.41;5034092;28;20197;-83
2022/11/22 10:20:28;;;;;;;6.73;5.20;;;;;;;5.20;96.11;99053.91;5030166;28;20305;-84
2022/11/22 10:22:56;;;;;;;6.37;5.50;;;;;;;5.26;96.41;99050.00;5033541;28;20208;-83
2022/11/22 10:25:36;;;;;;;8.87;5.90;;;;;;;5.30;96.03;99043.59;5029059;28;20231;-83
2022/11/22 10:28:13;;;;;;;9.40;5.50;;;;;;;5.35;95.56;99041.50;5034824;28;20198;-84
2022/11/22 10:30:48;;;;;;;10.03;5.70;;;;;;;5.40;95.68;99044.66;5037207;28;20226;-84
2022/11/22 10:33:20;;;;;;;9.73;5.43;;;;;;;5.46;95.30;99038.13;5033290;28;20209;-84
2022/11/22 10:36:11;;;;;;;8.97;5.93;;;;;;;5.54;95.62;99030.53;5037080;28;20205;-84
2022/11/22 10:39:17;;;;;;;8.97;5.77;;;;;;;5.63;95.40;99034.31;5039341;28;20214;-83
2022/11/22 10:41:54;;;;;;;9.87;5.30;;;;;;;5.68;95.03;99029.56;5023914;28;22200;-83
2022/11/22 10:44:30;;;;;;;7.80;5.30;;;;;;;5.72;94.79;99033.72;5031589;28;20209;-84
2022/11/22 10:47:11;;;;;;;9.07;5.10;;;;;;;5.76;94.67;99027.22;5028952;28;20209;-83
2022/11/22 10:49:52;;;;;;;5.80;4.47;;;;;;;5.79;94.13;99019.94;5036810;28;20214;-83
2022/11/22 10:52:28;;;;;;;7.50;4.50;;;;;;;5.81;94.15;99030.41;5031503;28;20207;-83
2022/11/22 10:55:03;;;;;;;5.83;4.70;;;;;;;5.82;93.50;99017.09;5032392;28;20598;-83
2022/11/22 10:57:38;;;;;;;8.63;4.97;;;;;;;5.86;93.25;99017.72;5042000;28;20197;-83
2022/11/22 11:00:18;;;;;;;8.20;4.73;;;;;;;5.89;93.19;99013.13;5032067;28;20312;-83
2022/11/22 11:03:02;;;;;;;9.20;4.90;;;;;;;5.92;93.30;99007.59;5032460;28;20822;-83
2022/11/22 11:05:35;;;;;;;8.07;5.27;;;;;;;5.98;92.65;99001.03;5036836;28;20217;-83
2022/11/22 11:08:03;;;;;;;9.17;4.80;;;;;;;6.01;92.41;98998.19;5030436;28;20204;-83
2022/11/22 11:10:35;;;;;;;7.27;5.00;;;;;;;6.03;92.40;98996.28;5041149;28;20237;-83
2022/11/22 11:13:05;;;;;;;5.03;4.53;;;;;;;6.05;92.14;98997.03;5026035;28;20226;-83
2022/11/22 11:15:37;;;;;;;16.93;11.03;;;;;;;6.07;91.55;99003.06;5037320;28;20203;-84
2022/11/22 11:18:12;;;;;;;12.00;6.03;;;;;;;6.09;91.46;99002.94;5031620;28;20209;-84
2022/11/22 11:20:42;;;;;;;12.40;5.83;;;;;;;6.10;91.15;98994.88;5030787;28;20226;-84
2022/11/22 11:23:09;;;;;;;6.83;4.90;;;;;;;6.12;91.05;99000.91;5031518;28;20203;-83
2022/11/22 11:25:39;;;;;;;8.60;5.07;;;;;;;6.14;90.88;99000.78;5016797;28;20225;-83
2022/11/22 11:28:09;;;;;;;9.70;4.80;;;;;;;6.17;90.73;98998.78;5030060;28;20787;-84
2022/11/22 11:30:42;;;;;;;6.93;4.00;;;;;;;6.17;90.38;98993.50;5020277;28;20222;-86
2022/11/22 11:33:20;;;;;;;8.27;4.77;;;;;;;6.20;90.08;99001.22;5022711;28;20210;-84
2022/11/22 11:35:47;;;;;;;9.07;5.70;;;;;;;6.22;89.99;98994.03;5029244;28;20202;-84
2022/11/22 11:38:28;;;;;;;8.23;5.40;;;;;;;6.25;90.03;99004.38;5020757;28;20203;-84
2022/11/22 11:40:54;;;;;;;7.30;4.77;;;;;;;6.29;89.88;98999.69;5031690;28;20649;-85
2022/11/22 11:43:22;;;;;;;5.50;4.17;;;;;;;6.31;89.55;99000.44;5036155;28;20222;-84